Arichat, Canada
Current Conditions -  °F | °C
As of 6:00 PM on Wednesday 22 Oct 2014 (Local Time) from CYPD Reporting Station
Overcast Overcast  
Wind Chill: 52°   Ceiling: 10000
Heat Index: 52°   Visibility: 9mi
Dew Point: 41°   Wind: 14mph
Humidity: 67%   Direction: 70°ENE
Pressure: 30.32"   Gusts: 21mph
Location:  45.52°N, 61.02°W
Report Text: CYPD 222100Z AUTO 07012G18KT 9SM BKN100 OVC150 11/05 A3032 RMK SLP271
Loading
Personal Weather Stations






























Interactive Weather Map
Tropical Storm Tracking
New forecast layout! Learn more

10-Day Weather Forecast

Advertisements
Track Severe Weather on mobile